createdAt,value
2023-04-12T00:01:45.025Z,8.75
2023-04-12T00:04:55.884Z,8.71
2023-04-12T00:08:05.235Z,8.68
2023-04-12T00:11:11.472Z,8.56
2023-04-12T00:14:17.419Z,8.66
2023-04-12T00:17:23.497Z,8.70
2023-04-12T00:20:29.803Z,8.72
2023-04-12T00:23:38.218Z,8.91
2023-04-12T00:26:44.519Z,8.71
2023-04-12T00:29:50.767Z,8.79
2023-04-12T00:32:57.059Z,8.88
2023-04-12T00:36:03.438Z,8.85
2023-04-12T00:39:11.337Z,8.75
2023-04-12T00:42:17.751Z,8.77
2023-04-12T00:45:24.255Z,8.78
2023-04-12T00:48:30.821Z,8.70
2023-04-12T00:51:38.308Z,8.70
2023-04-12T00:54:46.176Z,8.87
2023-04-12T00:57:52.953Z,8.70
2023-04-12T01:00:59.250Z,8.68
2023-04-12T01:04:06.006Z,8.86
2023-04-12T01:07:20.267Z,8.82
2023-04-12T01:10:38.629Z,8.98
2023-04-12T01:13:52.969Z,8.90
2023-04-12T01:17:05.070Z,8.99
2023-04-12T01:20:17.262Z,8.91
2023-04-12T01:23:44.865Z,8.99
2023-04-12T01:26:53.805Z,8.82
2023-04-12T01:30:04.516Z,9.17
2023-04-12T01:33:13.501Z,9.02
2023-04-12T01:36:22.809Z,8.86
2023-04-12T01:39:29.623Z,8.91
2023-04-12T01:42:35.452Z,8.84
2023-04-12T01:45:43.188Z,8.88
2023-04-12T01:48:51.541Z,8.85
2023-04-12T01:52:10.009Z,8.85
2023-04-12T01:55:18.117Z,8.81
2023-04-12T01:58:26.500Z,8.78
2023-04-12T02:01:34.687Z,8.84
2023-04-12T02:04:42.975Z,8.82
2023-04-12T02:07:50.109Z,8.53
2023-04-12T02:10:56.188Z,8.80
2023-04-12T02:14:02.516Z,8.88
2023-04-12T02:17:09.869Z,8.79
2023-04-12T02:20:18.118Z,8.96
2023-04-12T02:23:24.485Z,8.81
2023-04-12T02:26:30.784Z,8.82
2023-04-12T02:29:36.910Z,8.84
2023-04-12T02:32:47.471Z,8.59
2023-04-12T02:35:53.546Z,8.91
2023-04-12T02:38:59.690Z,8.83
2023-04-12T02:42:06.103Z,9.00
2023-04-12T02:45:13.137Z,8.84
2023-04-12T02:48:20.871Z,8.85
2023-04-12T02:51:28.166Z,8.88
2023-04-12T02:54:34.461Z,8.73
2023-04-12T02:57:41.405Z,8.97
2023-04-12T03:00:50.069Z,8.81
2023-04-12T03:03:58.012Z,8.94
2023-04-12T03:07:05.534Z,8.78
2023-04-12T03:10:12.942Z,8.94
2023-04-12T03:13:19.244Z,8.76
2023-04-12T03:16:30.184Z,8.80
2023-04-12T03:19:37.783Z,8.77
2023-04-12T03:22:44.103Z,8.86
2023-04-12T03:25:50.401Z,8.76
2023-04-12T03:29:05.233Z,8.60
2023-04-12T03:32:11.714Z,8.78
2023-04-12T03:35:19.641Z,8.84
2023-04-12T03:38:26.275Z,8.71
2023-04-12T03:41:32.576Z,8.67
2023-04-12T03:44:38.688Z,8.75
2023-04-12T03:47:45.380Z,8.72
2023-04-12T03:50:54.823Z,8.62
2023-04-12T03:54:02.911Z,8.96
2023-04-12T03:57:09.301Z,8.96
2023-04-12T04:00:16.181Z,9.03
2023-04-12T04:03:27.102Z,8.96
2023-04-12T04:06:34.994Z,9.05
2023-04-12T04:09:41.370Z,9.11
2023-04-12T04:12:47.459Z,9.23
2023-04-12T04:16:00.790Z,9.23
2023-04-12T04:19:07.156Z,9.27
2023-04-12T04:22:14.798Z,8.94
2023-04-12T04:25:22.037Z,8.91
2023-04-12T04:28:28.409Z,9.07
2023-04-12T04:31:36.617Z,8.98
2023-04-12T04:34:43.641Z,8.69
2023-04-12T04:37:51.694Z,8.75
2023-04-12T04:40:58.928Z,9.00
2023-04-12T04:44:09.647Z,8.83
2023-04-12T04:47:15.714Z,8.89
2023-04-12T04:50:23.111Z,8.79
2023-04-12T04:53:31.006Z,8.63
2023-04-12T04:56:37.079Z,8.81
2023-04-12T04:59:43.050Z,8.84
2023-04-12T05:02:49.761Z,8.91
2023-04-12T05:05:56.726Z,8.93
2023-04-12T05:09:05.350Z,9.18
2023-04-12T05:12:11.488Z,9.21
2023-04-12T05:15:17.549Z,9.05
2023-04-12T05:18:23.772Z,9.35
2023-04-12T05:21:30.149Z,9.20
2023-04-12T05:24:37.772Z,9.44
2023-04-12T05:27:43.799Z,9.06
2023-04-12T05:30:49.971Z,9.36
2023-04-12T05:33:56.294Z,9.37
2023-04-12T05:37:02.499Z,9.68
2023-04-12T05:40:11.256Z,9.53
2023-04-12T05:43:18.365Z,9.51
2023-04-12T05:46:24.604Z,9.49
2023-04-12T05:49:31.444Z,9.46
2023-04-12T05:52:38.291Z,9.39
2023-04-12T05:55:45.677Z,9.45
2023-04-12T05:58:51.421Z,9.46
2023-04-12T06:01:57.440Z,9.63
2023-04-12T06:05:03.976Z,9.39
2023-04-12T06:08:10.496Z,9.41
2023-04-12T06:11:18.382Z,9.45
2023-04-12T06:14:24.721Z,10.29
2023-04-12T06:17:30.869Z,10.71
2023-04-12T06:20:40.450Z,10.78
2023-04-12T06:23:46.486Z,10.89
2023-04-12T06:26:53.900Z,11.01
2023-04-12T06:30:00.201Z,10.78
2023-04-12T06:33:06.474Z,10.87
2023-04-12T06:36:14.720Z,11.21
2023-04-12T06:39:21.272Z,11.47
2023-04-12T06:42:29.081Z,11.29
2023-04-12T06:45:35.440Z,10.96
2023-04-12T06:48:41.847Z,11.01
2023-04-12T06:51:48.271Z,11.04
2023-04-12T06:54:54.743Z,11.14
2023-04-12T06:58:02.473Z,11.68
2023-04-12T07:01:10.272Z,11.68
2023-04-12T07:04:17.097Z,11.30
2023-04-12T07:07:23.444Z,11.55
2023-04-12T07:10:29.646Z,11.24
2023-04-12T07:13:37.424Z,11.18
2023-04-12T07:16:44.438Z,11.68
2023-04-12T07:19:52.270Z,12.15
2023-04-12T07:22:58.724Z,12.06
2023-04-12T07:26:05.484Z,11.37
2023-04-12T07:29:13.229Z,11.27
2023-04-12T07:32:19.522Z,11.46
2023-04-12T07:35:26.048Z,11.63
2023-04-12T07:38:32.281Z,12.02
2023-04-12T07:41:38.852Z,12.14
2023-04-12T07:44:46.428Z,12.43
2023-04-12T07:47:53.151Z,12.49
2023-04-12T07:50:59.272Z,12.22
2023-04-12T07:54:06.072Z,11.93
2023-04-12T07:57:12.262Z,12.13
2023-04-12T08:00:20.811Z,11.31
2023-04-12T08:03:27.324Z,11.36
2023-04-12T08:06:34.499Z,11.11
2023-04-12T08:09:41.069Z,11.01
2023-04-12T08:12:47.414Z,11.29
2023-04-12T08:15:55.348Z,10.97
2023-04-12T08:19:02.151Z,11.17
2023-04-12T08:22:08.689Z,10.95
2023-04-12T08:25:15.478Z,11.24
2023-04-12T08:28:22.785Z,11.08
2023-04-12T08:31:31.229Z,11.41
2023-04-12T08:34:38.895Z,11.44
2023-04-12T08:37:45.431Z,11.68
2023-04-12T08:40:51.788Z,10.93
2023-04-12T08:44:00.947Z,10.99
2023-04-12T08:47:13.363Z,10.95
2023-04-12T08:50:22.427Z,11.17
2023-04-12T08:53:28.787Z,12.05
2023-04-12T08:56:38.882Z,11.93
2023-04-12T08:59:49.287Z,12.38
2023-04-12T09:02:57.535Z,11.85
2023-04-12T09:06:04.922Z,11.96
2023-04-12T09:09:11.263Z,11.67
2023-04-12T09:12:20.256Z,11.02
2023-04-12T09:15:26.396Z,11.03
2023-04-12T09:18:49.720Z,10.54
2023-04-12T09:21:57.567Z,11.10
2023-04-12T09:25:04.051Z,10.75
2023-04-12T09:28:21.151Z,11.17
2023-04-12T09:31:27.992Z,10.68
2023-04-12T09:34:37.035Z,10.69
2023-04-12T09:37:43.578Z,9.80
2023-04-12T09:40:50.357Z,10.17
2023-04-12T09:43:57.183Z,9.98
2023-04-12T09:47:06.182Z,10.44
2023-04-12T09:50:22.178Z,11.98
2023-04-12T09:53:29.212Z,11.62
2023-04-12T09:56:37.915Z,11.89
2023-04-12T09:59:45.573Z,12.13
2023-04-12T10:02:53.787Z,13.33
2023-04-12T10:06:01.742Z,13.20
2023-04-12T10:09:09.039Z,13.80
2023-04-12T10:12:16.042Z,12.54
2023-04-12T10:15:22.437Z,12.42
2023-04-12T10:18:29.926Z,13.70
2023-04-12T10:21:37.681Z,13.42
2023-04-12T10:24:45.226Z,13.09
2023-04-12T10:27:51.537Z,13.27
2023-04-12T10:30:58.881Z,13.23
2023-04-12T10:34:05.039Z,14.11
2023-04-12T10:37:14.402Z,13.81
2023-04-12T10:40:21.423Z,13.95
2023-04-12T10:43:29.201Z,13.15
2023-04-12T10:46:54.166Z,14.14
2023-04-12T10:50:24.700Z,13.64
2023-04-12T10:53:32.791Z,14.61
2023-04-12T10:56:41.220Z,13.55
2023-04-12T10:59:56.133Z,12.35
2023-04-12T11:03:12.844Z,11.86
2023-04-12T11:06:26.901Z,12.21
2023-04-12T11:09:41.639Z,11.36
2023-04-12T11:12:51.323Z,11.17
2023-04-12T11:15:58.342Z,10.96
2023-04-12T11:19:05.005Z,10.76
2023-04-12T11:22:14.091Z,10.65
2023-04-12T11:25:21.905Z,11.13
2023-04-12T11:28:31.830Z,11.69
2023-04-12T11:31:40.025Z,12.40
2023-04-12T11:34:47.489Z,12.83
2023-04-12T11:37:53.972Z,11.55
2023-04-12T11:41:01.875Z,11.47
2023-04-12T11:44:08.945Z,11.29
2023-04-12T11:47:17.624Z,10.94
2023-04-12T11:50:32.541Z,10.85
2023-04-12T11:53:39.093Z,11.10
2023-04-12T11:56:46.870Z,10.28
2023-04-12T11:59:53.959Z,9.91
2023-04-12T12:03:07.655Z,10.24
2023-04-12T12:06:16.650Z,10.61
2023-04-12T12:09:22.998Z,10.39
2023-04-12T12:12:30.526Z,10.71
2023-04-12T12:15:37.001Z,10.78
2023-04-12T12:18:43.662Z,10.95
2023-04-12T12:21:50.026Z,11.59
2023-04-12T12:24:58.128Z,12.55
2023-04-12T12:28:07.391Z,13.04
2023-04-12T12:31:15.901Z,12.52
2023-04-12T12:34:22.260Z,12.57
2023-04-12T12:37:29.527Z,12.11
2023-04-12T12:40:36.153Z,12.12
2023-04-12T12:43:47.902Z,11.62
2023-04-12T12:47:00.815Z,11.06
2023-04-12T12:50:17.826Z,10.56
2023-04-12T12:53:24.585Z,10.54
2023-04-12T12:56:31.118Z,11.01
2023-04-12T12:59:38.706Z,11.34
2023-04-12T13:02:45.081Z,11.47
2023-04-12T13:05:52.176Z,11.60
2023-04-12T13:08:58.574Z,11.86
2023-04-12T13:12:05.336Z,13.26
2023-04-12T13:15:22.322Z,12.34
2023-04-12T13:18:30.209Z,11.98
2023-04-12T13:21:36.633Z,12.65
2023-04-12T13:24:43.459Z,12.86
2023-04-12T13:27:50.663Z,12.40
2023-04-12T13:30:58.531Z,12.12
2023-04-12T13:34:04.707Z,13.38
2023-04-12T13:37:10.921Z,13.82
2023-04-12T13:40:16.984Z,13.67
2023-04-12T13:43:23.091Z,13.82
2023-04-12T13:46:30.820Z,12.70
2023-04-12T13:49:36.853Z,13.74
2023-04-12T13:52:43.141Z,13.99
2023-04-12T13:55:50.317Z,14.73
2023-04-12T13:58:59.339Z,14.34
2023-04-12T14:02:07.537Z,14.97
2023-04-12T14:05:14.180Z,15.39
2023-04-12T14:08:20.484Z,14.81
2023-04-12T14:11:26.922Z,14.34
2023-04-12T14:14:33.225Z,14.89
2023-04-12T14:17:40.925Z,14.77
2023-04-12T14:20:52.279Z,15.33
2023-04-12T14:23:58.757Z,15.11
2023-04-12T14:27:05.676Z,15.41
2023-04-12T14:30:12.229Z,14.49
2023-04-12T14:33:19.847Z,15.38
2023-04-12T14:36:27.650Z,18.33
2023-04-12T14:39:34.627Z,19.20
2023-04-12T14:42:41.057Z,16.71
2023-04-12T14:45:47.285Z,16.05
2023-04-12T14:48:54.886Z,14.95
2023-04-12T14:52:00.955Z,13.58
2023-04-12T14:55:08.565Z,14.99
2023-04-12T14:58:15.165Z,14.00
2023-04-12T15:01:21.970Z,13.59
2023-04-12T15:04:30.278Z,14.07
2023-04-12T15:07:36.813Z,14.21
2023-04-12T15:10:43.077Z,13.45
2023-04-12T15:13:52.586Z,13.20
2023-04-12T15:16:58.743Z,12.77
2023-04-12T15:20:11.644Z,13.21
2023-04-12T15:23:17.836Z,13.19
2023-04-12T15:26:24.106Z,12.84
2023-04-12T15:29:31.005Z,13.05
2023-04-12T15:32:39.190Z,12.73
2023-04-12T15:35:49.843Z,13.29
2023-04-12T15:38:56.141Z,12.54
2023-04-12T15:42:02.418Z,12.46
2023-04-12T15:45:09.762Z,12.67
2023-04-12T15:48:15.875Z,12.56
2023-04-12T15:51:24.096Z,12.29
2023-04-12T15:54:30.395Z,12.36
2023-04-12T15:57:36.794Z,12.48
2023-04-12T16:00:43.971Z,12.46
2023-04-12T16:03:51.791Z,12.23
2023-04-12T16:07:07.254Z,12.39
2023-04-12T16:10:13.812Z,12.14
2023-04-12T16:13:20.697Z,12.01
2023-04-12T16:16:30.327Z,11.93
2023-04-12T16:19:36.951Z,11.88
2023-04-12T16:22:45.544Z,11.61
2023-04-12T16:25:51.621Z,11.61
2023-04-12T16:28:59.455Z,11.70
2023-04-12T16:32:08.970Z,11.38
2023-04-12T16:35:16.679Z,11.52
2023-04-12T16:38:26.965Z,11.14
2023-04-12T16:41:33.474Z,11.20
2023-04-12T16:44:39.527Z,11.14
2023-04-12T16:47:47.761Z,10.98
2023-04-12T16:50:53.966Z,10.87
2023-04-12T16:54:01.583Z,10.63
2023-04-12T16:57:07.928Z,10.40
2023-04-12T17:00:19.735Z,10.17
2023-04-12T17:03:26.276Z,10.23
2023-04-12T17:06:34.092Z,10.32
2023-04-12T17:09:42.153Z,10.06
2023-04-12T17:12:55.212Z,10.00
2023-04-12T17:16:01.806Z,9.91
2023-04-12T17:19:10.470Z,9.82
2023-04-12T17:22:18.181Z,9.70
2023-04-12T17:25:29.345Z,9.56
2023-04-12T17:28:38.991Z,9.72
2023-04-12T17:31:46.122Z,9.58
2023-04-12T17:34:54.851Z,9.77
2023-04-12T17:38:00.941Z,9.71
2023-04-12T17:41:09.324Z,9.46
2023-04-12T17:44:15.485Z,9.41
2023-04-12T17:47:22.656Z,9.51
2023-04-12T17:50:32.041Z,9.46
2023-04-12T17:53:38.554Z,9.47
2023-04-12T17:56:46.090Z,9.43
2023-04-12T17:59:51.916Z,9.25
2023-04-12T18:02:58.483Z,9.04
2023-04-12T18:06:06.601Z,9.34
2023-04-12T18:09:14.574Z,9.34
2023-04-12T18:12:22.014Z,9.31
2023-04-12T18:15:28.798Z,9.28
2023-04-12T18:18:35.882Z,9.26
2023-04-12T18:21:42.071Z,9.05
2023-04-12T18:24:48.344Z,8.99
2023-04-12T18:27:56.337Z,9.05
2023-04-12T18:31:03.700Z,9.27
2023-04-12T18:34:10.161Z,9.19
2023-04-12T18:37:16.339Z,9.24
2023-04-12T18:40:23.763Z,9.28
2023-04-12T18:43:31.272Z,9.18
2023-04-12T18:46:37.985Z,9.06
2023-04-12T18:49:45.914Z,9.07
2023-04-12T18:52:53.094Z,9.04
2023-04-12T18:56:08.884Z,9.08
2023-04-12T18:59:17.946Z,9.04
2023-04-12T19:02:24.358Z,8.98
2023-04-12T19:05:31.140Z,9.03
2023-04-12T19:08:37.560Z,9.15
2023-04-12T19:11:43.686Z,9.13
2023-04-12T19:14:51.622Z,9.10
2023-04-12T19:18:00.010Z,9.24
2023-04-12T19:21:07.789Z,9.26
2023-04-12T19:24:13.897Z,9.13
2023-04-12T19:27:20.409Z,9.06
2023-04-12T19:30:28.170Z,9.18
2023-04-12T19:33:34.494Z,8.97
2023-04-12T19:36:42.604Z,9.14
2023-04-12T19:39:49.139Z,8.86
2023-04-12T19:42:55.464Z,8.98
2023-04-12T19:46:04.758Z,8.97
2023-04-12T19:49:11.264Z,8.92
2023-04-12T19:52:20.284Z,8.91
2023-04-12T19:55:26.781Z,8.76
2023-04-12T19:58:33.543Z,8.77
2023-04-12T20:01:48.519Z,8.92
2023-04-12T20:04:54.990Z,8.78
2023-04-12T20:08:01.295Z,8.74
2023-04-12T20:11:07.922Z,8.86
2023-04-12T20:14:14.053Z,8.67
2023-04-12T20:17:22.281Z,8.79
2023-04-12T20:20:28.281Z,8.74
2023-04-12T20:23:34.486Z,8.62
2023-04-12T20:26:40.758Z,8.75
2023-04-12T20:29:47.084Z,8.49
2023-04-12T20:32:55.318Z,8.49
2023-04-12T20:36:01.822Z,8.04
2023-04-12T20:39:08.644Z,7.84
2023-04-12T20:42:16.536Z,7.69
2023-04-12T20:45:23.509Z,7.82
2023-04-12T20:48:31.661Z,8.03
2023-04-12T20:51:39.089Z,7.93
2023-04-12T20:54:48.354Z,7.75
2023-04-12T20:57:55.941Z,7.66
2023-04-12T21:01:05.116Z,7.62
2023-04-12T21:04:15.720Z,7.41
2023-04-12T21:07:26.018Z,6.96
2023-04-12T21:10:32.125Z,6.32
2023-04-12T21:13:38.608Z,6.14
2023-04-12T21:16:44.484Z,6.35
2023-04-12T21:19:52.167Z,6.14
2023-04-12T21:22:58.087Z,6.28
2023-04-12T21:26:04.383Z,5.85
2023-04-12T21:29:11.787Z,5.59
2023-04-12T21:32:17.917Z,5.68
2023-04-12T21:35:26.010Z,5.56
2023-04-12T21:38:32.346Z,5.63
2023-04-12T21:41:38.897Z,5.34
2023-04-12T21:44:45.350Z,5.53
2023-04-12T21:47:54.502Z,5.03
2023-04-12T21:51:02.393Z,5.03
2023-04-12T21:54:08.431Z,4.94
2023-04-12T21:57:16.364Z,4.98
2023-04-12T22:00:25.013Z,4.81
2023-04-12T22:03:31.235Z,4.39
2023-04-12T22:06:38.870Z,4.74
2023-04-12T22:09:45.417Z,4.56
2023-04-12T22:12:51.822Z,4.42
2023-04-12T22:15:58.092Z,4.38
2023-04-12T22:19:04.304Z,4.20
2023-04-12T22:22:14.358Z,4.24
2023-04-12T22:25:20.728Z,4.09
2023-04-12T22:28:27.402Z,4.33
2023-04-12T22:31:33.993Z,4.05
2023-04-12T22:34:41.040Z,3.46
2023-04-12T22:37:48.525Z,4.00
2023-04-12T22:41:02.271Z,3.90
2023-04-12T22:44:09.345Z,3.65
2023-04-12T22:47:15.697Z,3.25
2023-04-12T22:50:22.247Z,3.64
2023-04-12T22:53:29.926Z,2.63
2023-04-12T22:56:41.977Z,2.15
2023-04-12T22:59:48.351Z,3.10
2023-04-12T23:02:54.721Z,2.31
2023-04-12T23:06:02.110Z,3.19
2023-04-12T23:09:10.760Z,2.96
2023-04-12T23:12:17.028Z,3.00
2023-04-12T23:15:24.197Z,2.88
2023-04-12T23:18:30.911Z,2.67
2023-04-12T23:21:37.297Z,3.07
2023-04-12T23:24:50.650Z,2.84
2023-04-12T23:27:56.770Z,2.94
2023-04-12T23:31:02.923Z,3.11
2023-04-12T23:34:09.374Z,2.76
2023-04-12T23:37:16.636Z,2.64
2023-04-12T23:40:25.792Z,2.10
2023-04-12T23:43:33.820Z,2.62
2023-04-12T23:46:40.262Z,2.09
2023-04-12T23:49:46.880Z,2.35
2023-04-12T23:52:53.014Z,2.11
2023-04-12T23:56:00.883Z,2.63
2023-04-12T23:59:07.228Z,1.64
